sensor_id;sensor_type;location;lat;lon;timestamp;P1;durP1;ratioP1;P2;durP2;ratioP2
72406;SDS011;60396;47.550;18.828;2023-04-25T00:01:59;5.62;;;0.85;;
72406;SDS011;60396;47.550;18.828;2023-04-25T00:04:27;4.15;;;0.82;;
72406;SDS011;60396;47.550;18.828;2023-04-25T00:06:55;3.00;;;0.85;;
72406;SDS011;60396;47.550;18.828;2023-04-25T00:09:23;5.45;;;1.08;;
72406;SDS011;60396;47.550;18.828;2023-04-25T00:11:50;3.57;;;1.00;;
72406;SDS011;60396;47.550;18.828;2023-04-25T00:14:18;3.03;;;0.65;;
72406;SDS011;60396;47.550;18.828;2023-04-25T00:16:46;5.95;;;1.30;;
72406;SDS011;60396;47.550;18.828;2023-04-25T00:19:13;5.57;;;1.15;;
72406;SDS011;60396;47.550;18.828;2023-04-25T00:21:41;3.90;;;1.10;;
72406;SDS011;60396;47.550;18.828;2023-04-25T00:24:08;5.63;;;1.00;;
72406;SDS011;60396;47.550;18.828;2023-04-25T00:26:37;4.18;;;1.10;;
72406;SDS011;60396;47.550;18.828;2023-04-25T00:29:05;4.53;;;1.25;;
72406;SDS011;60396;47.550;18.828;2023-04-25T00:31:32;4.80;;;1.30;;
72406;SDS011;60396;47.550;18.828;2023-04-25T00:34:00;6.45;;;1.52;;
72406;SDS011;60396;47.550;18.828;2023-04-25T00:36:28;4.70;;;1.27;;
72406;SDS011;60396;47.550;18.828;2023-04-25T00:38:55;5.35;;;1.60;;
72406;SDS011;60396;47.550;18.828;2023-04-25T00:41:24;4.50;;;1.40;;
72406;SDS011;60396;47.550;18.828;2023-04-25T00:43:53;4.72;;;1.40;;
72406;SDS011;60396;47.550;18.828;2023-04-25T00:46:21;4.22;;;1.40;;
72406;SDS011;60396;47.550;18.828;2023-04-25T00:48:50;4.60;;;1.50;;
72406;SDS011;60396;47.550;18.828;2023-04-25T00:51:19;4.43;;;1.48;;
72406;SDS011;60396;47.550;18.828;2023-04-25T00:53:48;7.15;;;1.67;;
72406;SDS011;60396;47.550;18.828;2023-04-25T00:56:18;6.22;;;2.08;;
72406;SDS011;60396;47.550;18.828;2023-04-25T00:58:45;4.70;;;1.73;;
72406;SDS011;60396;47.550;18.828;2023-04-25T01:01:13;5.17;;;1.50;;
72406;SDS011;60396;47.550;18.828;2023-04-25T01:03:41;4.95;;;1.70;;
72406;SDS011;60396;47.550;18.828;2023-04-25T01:06:09;5.35;;;1.65;;
72406;SDS011;60396;47.550;18.828;2023-04-25T01:08:38;6.43;;;1.67;;
72406;SDS011;60396;47.550;18.828;2023-04-25T01:11:07;5.15;;;1.70;;
72406;SDS011;60396;47.550;18.828;2023-04-25T01:13:35;6.43;;;1.80;;
72406;SDS011;60396;47.550;18.828;2023-04-25T01:16:04;5.70;;;2.25;;
72406;SDS011;60396;47.550;18.828;2023-04-25T01:18:32;5.80;;;1.98;;
72406;SDS011;60396;47.550;18.828;2023-04-25T01:21:06;6.28;;;1.80;;
72406;SDS011;60396;47.550;18.828;2023-04-25T01:23:37;6.60;;;1.87;;
72406;SDS011;60396;47.550;18.828;2023-04-25T01:26:06;7.17;;;2.00;;
72406;SDS011;60396;47.550;18.828;2023-04-25T01:28:35;5.35;;;2.05;;
72406;SDS011;60396;47.550;18.828;2023-04-25T01:31:03;6.37;;;1.67;;
72406;SDS011;60396;47.550;18.828;2023-04-25T01:33:31;6.50;;;2.65;;
72406;SDS011;60396;47.550;18.828;2023-04-25T01:35:59;4.95;;;1.90;;
72406;SDS011;60396;47.550;18.828;2023-04-25T01:38:27;7.27;;;2.30;;
72406;SDS011;60396;47.550;18.828;2023-04-25T01:40:55;5.93;;;2.08;;
72406;SDS011;60396;47.550;18.828;2023-04-25T01:43:23;4.87;;;2.00;;
72406;SDS011;60396;47.550;18.828;2023-04-25T01:45:51;5.43;;;1.83;;
72406;SDS011;60396;47.550;18.828;2023-04-25T01:48:19;6.95;;;1.70;;
72406;SDS011;60396;47.550;18.828;2023-04-25T01:50:47;5.13;;;1.60;;
72406;SDS011;60396;47.550;18.828;2023-04-25T01:53:15;7.05;;;2.12;;
72406;SDS011;60396;47.550;18.828;2023-04-25T01:55:43;4.53;;;1.58;;
72406;SDS011;60396;47.550;18.828;2023-04-25T01:58:10;6.65;;;2.00;;
72406;SDS011;60396;47.550;18.828;2023-04-25T02:00:41;6.75;;;1.90;;
72406;SDS011;60396;47.550;18.828;2023-04-25T02:03:09;9.50;;;1.97;;
72406;SDS011;60396;47.550;18.828;2023-04-25T02:05:37;4.80;;;1.58;;
72406;SDS011;60396;47.550;18.828;2023-04-25T02:08:06;5.43;;;2.10;;
72406;SDS011;60396;47.550;18.828;2023-04-25T02:10:35;5.65;;;2.00;;
72406;SDS011;60396;47.550;18.828;2023-04-25T02:13:04;5.55;;;2.03;;
72406;SDS011;60396;47.550;18.828;2023-04-25T02:15:33;5.60;;;1.67;;
72406;SDS011;60396;47.550;18.828;2023-04-25T02:18:01;5.80;;;1.75;;
72406;SDS011;60396;47.550;18.828;2023-04-25T02:20:29;6.28;;;2.10;;
72406;SDS011;60396;47.550;18.828;2023-04-25T02:22:57;5.87;;;1.85;;
72406;SDS011;60396;47.550;18.828;2023-04-25T02:25:27;5.47;;;1.75;;
72406;SDS011;60396;47.550;18.828;2023-04-25T02:27:55;5.40;;;1.60;;
72406;SDS011;60396;47.550;18.828;2023-04-25T02:30:23;5.80;;;2.03;;
72406;SDS011;60396;47.550;18.828;2023-04-25T02:32:50;9.02;;;1.70;;
72406;SDS011;60396;47.550;18.828;2023-04-25T02:35:18;6.03;;;1.92;;
72406;SDS011;60396;47.550;18.828;2023-04-25T02:37:46;6.12;;;1.87;;
72406;SDS011;60396;47.550;18.828;2023-04-25T02:40:14;8.73;;;1.80;;
72406;SDS011;60396;47.550;18.828;2023-04-25T02:42:42;4.30;;;1.50;;
72406;SDS011;60396;47.550;18.828;2023-04-25T02:45:10;5.03;;;1.62;;
72406;SDS011;60396;47.550;18.828;2023-04-25T02:47:37;8.68;;;1.98;;
72406;SDS011;60396;47.550;18.828;2023-04-25T02:50:05;5.25;;;1.87;;
72406;SDS011;60396;47.550;18.828;2023-04-25T02:52:34;9.57;;;2.00;;
72406;SDS011;60396;47.550;18.828;2023-04-25T02:55:02;6.03;;;1.50;;
72406;SDS011;60396;47.550;18.828;2023-04-25T02:57:30;6.37;;;1.48;;
72406;SDS011;60396;47.550;18.828;2023-04-25T02:59:59;5.72;;;1.95;;
72406;SDS011;60396;47.550;18.828;2023-04-25T03:02:27;4.72;;;1.70;;
72406;SDS011;60396;47.550;18.828;2023-04-25T03:04:54;5.10;;;1.87;;
72406;SDS011;60396;47.550;18.828;2023-04-25T03:07:22;4.53;;;1.67;;
72406;SDS011;60396;47.550;18.828;2023-04-25T03:09:50;7.43;;;2.15;;
72406;SDS011;60396;47.550;18.828;2023-04-25T03:12:18;5.55;;;1.77;;
72406;SDS011;60396;47.550;18.828;2023-04-25T03:14:46;6.07;;;2.28;;
72406;SDS011;60396;47.550;18.828;2023-04-25T03:17:14;5.20;;;1.83;;
72406;SDS011;60396;47.550;18.828;2023-04-25T03:19:43;6.15;;;1.90;;
72406;SDS011;60396;47.550;18.828;2023-04-25T03:22:11;5.60;;;1.80;;
72406;SDS011;60396;47.550;18.828;2023-04-25T03:24:42;5.45;;;1.70;;
72406;SDS011;60396;47.550;18.828;2023-04-25T03:27:10;5.32;;;1.87;;
72406;SDS011;60396;47.550;18.828;2023-04-25T03:29:38;6.40;;;1.77;;
72406;SDS011;60396;47.550;18.828;2023-04-25T03:32:05;6.03;;;2.20;;
72406;SDS011;60396;47.550;18.828;2023-04-25T03:34:33;6.28;;;2.05;;
72406;SDS011;60396;47.550;18.828;2023-04-25T03:37:01;5.85;;;1.92;;
72406;SDS011;60396;47.550;18.828;2023-04-25T03:39:29;5.78;;;2.08;;
72406;SDS011;60396;47.550;18.828;2023-04-25T03:41:57;5.87;;;2.03;;
72406;SDS011;60396;47.550;18.828;2023-04-25T03:44:27;6.70;;;2.05;;
72406;SDS011;60396;47.550;18.828;2023-04-25T03:46:55;5.82;;;2.22;;
72406;SDS011;60396;47.550;18.828;2023-04-25T03:49:24;5.97;;;2.10;;
72406;SDS011;60396;47.550;18.828;2023-04-25T03:51:52;5.15;;;1.60;;
72406;SDS011;60396;47.550;18.828;2023-04-25T03:54:20;7.50;;;2.03;;
72406;SDS011;60396;47.550;18.828;2023-04-25T03:56:49;5.30;;;1.73;;
72406;SDS011;60396;47.550;18.828;2023-04-25T03:59:17;6.50;;;2.28;;
72406;SDS011;60396;47.550;18.828;2023-04-25T04:01:45;7.93;;;2.03;;
72406;SDS011;60396;47.550;18.828;2023-04-25T04:04:13;5.90;;;2.35;;
72406;SDS011;60396;47.550;18.828;2023-04-25T04:06:40;7.10;;;1.80;;
72406;SDS011;60396;47.550;18.828;2023-04-25T04:09:10;8.98;;;2.28;;
72406;SDS011;60396;47.550;18.828;2023-04-25T04:11:38;6.85;;;2.00;;
72406;SDS011;60396;47.550;18.828;2023-04-25T04:14:07;5.57;;;1.77;;
72406;SDS011;60396;47.550;18.828;2023-04-25T04:16:35;7.03;;;2.22;;
72406;SDS011;60396;47.550;18.828;2023-04-25T04:19:03;5.90;;;1.90;;
72406;SDS011;60396;47.550;18.828;2023-04-25T04:21:31;6.70;;;2.60;;
72406;SDS011;60396;47.550;18.828;2023-04-25T04:23:59;6.55;;;2.25;;
72406;SDS011;60396;47.550;18.828;2023-04-25T04:26:28;6.35;;;2.30;;
72406;SDS011;60396;47.550;18.828;2023-04-25T04:28:56;6.90;;;2.58;;
72406;SDS011;60396;47.550;18.828;2023-04-25T04:31:24;6.47;;;2.07;;
72406;SDS011;60396;47.550;18.828;2023-04-25T04:33:52;8.15;;;2.40;;
72406;SDS011;60396;47.550;18.828;2023-04-25T04:36:20;6.28;;;2.15;;
72406;SDS011;60396;47.550;18.828;2023-04-25T04:38:49;6.10;;;2.17;;
72406;SDS011;60396;47.550;18.828;2023-04-25T04:41:17;5.97;;;2.40;;
72406;SDS011;60396;47.550;18.828;2023-04-25T04:43:47;6.63;;;2.23;;
72406;SDS011;60396;47.550;18.828;2023-04-25T04:46:15;6.32;;;2.40;;
72406;SDS011;60396;47.550;18.828;2023-04-25T04:48:44;5.93;;;2.45;;
72406;SDS011;60396;47.550;18.828;2023-04-25T04:51:12;11.65;;;2.62;;
72406;SDS011;60396;47.550;18.828;2023-04-25T04:53:40;7.22;;;2.60;;
72406;SDS011;60396;47.550;18.828;2023-04-25T04:56:08;7.93;;;2.93;;
72406;SDS011;60396;47.550;18.828;2023-04-25T04:58:36;5.97;;;2.35;;
72406;SDS011;60396;47.550;18.828;2023-04-25T05:01:04;6.80;;;2.70;;
72406;SDS011;60396;47.550;18.828;2023-04-25T05:03:32;9.27;;;2.80;;
72406;SDS011;60396;47.550;18.828;2023-04-25T05:06:01;7.12;;;2.55;;
72406;SDS011;60396;47.550;18.828;2023-04-25T05:08:28;6.67;;;2.53;;
72406;SDS011;60396;47.550;18.828;2023-04-25T05:10:58;9.93;;;2.45;;
72406;SDS011;60396;47.550;18.828;2023-04-25T05:13:26;5.95;;;2.65;;
72406;SDS011;60396;47.550;18.828;2023-04-25T05:15:54;7.37;;;2.45;;
72406;SDS011;60396;47.550;18.828;2023-04-25T05:18:22;8.55;;;3.45;;
72406;SDS011;60396;47.550;18.828;2023-04-25T05:20:51;9.60;;;2.50;;
72406;SDS011;60396;47.550;18.828;2023-04-25T05:23:21;6.22;;;2.53;;
72406;SDS011;60396;47.550;18.828;2023-04-25T05:25:49;7.03;;;2.90;;
72406;SDS011;60396;47.550;18.828;2023-04-25T05:28:16;7.05;;;2.53;;
72406;SDS011;60396;47.550;18.828;2023-04-25T05:30:44;7.15;;;2.55;;
72406;SDS011;60396;47.550;18.828;2023-04-25T05:33:13;6.87;;;2.70;;
72406;SDS011;60396;47.550;18.828;2023-04-25T05:35:42;6.80;;;2.50;;
72406;SDS011;60396;47.550;18.828;2023-04-25T05:38:10;7.40;;;2.90;;
72406;SDS011;60396;47.550;18.828;2023-04-25T05:40:49;7.87;;;2.72;;
72406;SDS011;60396;47.550;18.828;2023-04-25T05:43:17;11.18;;;2.97;;
72406;SDS011;60396;47.550;18.828;2023-04-25T05:45:45;7.43;;;2.77;;
72406;SDS011;60396;47.550;18.828;2023-04-25T05:48:18;6.50;;;2.87;;
72406;SDS011;60396;47.550;18.828;2023-04-25T05:50:47;7.22;;;2.80;;
72406;SDS011;60396;47.550;18.828;2023-04-25T05:53:15;7.40;;;2.95;;
72406;SDS011;60396;47.550;18.828;2023-04-25T05:55:43;6.87;;;2.90;;
72406;SDS011;60396;47.550;18.828;2023-04-25T05:58:12;7.60;;;2.90;;
72406;SDS011;60396;47.550;18.828;2023-04-25T06:00:40;8.07;;;2.85;;
72406;SDS011;60396;47.550;18.828;2023-04-25T06:03:09;7.82;;;2.58;;
72406;SDS011;60396;47.550;18.828;2023-04-25T06:05:37;7.97;;;3.35;;
72406;SDS011;60396;47.550;18.828;2023-04-25T06:08:05;8.25;;;2.87;;
72406;SDS011;60396;47.550;18.828;2023-04-25T06:10:33;7.83;;;2.97;;
72406;SDS011;60396;47.550;18.828;2023-04-25T06:13:00;8.57;;;2.80;;
72406;SDS011;60396;47.550;18.828;2023-04-25T06:15:29;7.95;;;2.72;;
72406;SDS011;60396;47.550;18.828;2023-04-25T06:17:57;9.38;;;3.40;;
72406;SDS011;60396;47.550;18.828;2023-04-25T06:20:25;7.82;;;3.28;;
72406;SDS011;60396;47.550;18.828;2023-04-25T06:22:53;7.53;;;2.93;;
72406;SDS011;60396;47.550;18.828;2023-04-25T06:25:21;7.50;;;3.25;;
72406;SDS011;60396;47.550;18.828;2023-04-25T06:27:48;7.20;;;3.10;;
72406;SDS011;60396;47.550;18.828;2023-04-25T06:30:17;6.57;;;2.80;;
72406;SDS011;60396;47.550;18.828;2023-04-25T06:32:50;9.27;;;3.17;;
72406;SDS011;60396;47.550;18.828;2023-04-25T06:35:17;7.20;;;2.90;;
72406;SDS011;60396;47.550;18.828;2023-04-25T06:37:45;7.15;;;2.97;;
72406;SDS011;60396;47.550;18.828;2023-04-25T06:40:13;8.63;;;3.10;;
72406;SDS011;60396;47.550;18.828;2023-04-25T06:42:42;7.75;;;2.62;;
72406;SDS011;60396;47.550;18.828;2023-04-25T06:45:15;8.02;;;3.28;;
72406;SDS011;60396;47.550;18.828;2023-04-25T06:47:44;6.40;;;2.63;;
72406;SDS011;60396;47.550;18.828;2023-04-25T06:50:12;7.45;;;2.42;;
72406;SDS011;60396;47.550;18.828;2023-04-25T06:52:40;7.05;;;3.45;;
72406;SDS011;60396;47.550;18.828;2023-04-25T06:55:08;10.30;;;3.10;;
72406;SDS011;60396;47.550;18.828;2023-04-25T06:57:36;8.48;;;3.30;;
72406;SDS011;60396;47.550;18.828;2023-04-25T07:00:06;7.13;;;3.00;;
72406;SDS011;60396;47.550;18.828;2023-04-25T07:02:37;7.75;;;3.53;;
72406;SDS011;60396;47.550;18.828;2023-04-25T07:05:05;6.93;;;3.22;;
72406;SDS011;60396;47.550;18.828;2023-04-25T07:07:33;7.70;;;3.08;;
72406;SDS011;60396;47.550;18.828;2023-04-25T07:10:02;6.90;;;3.03;;
72406;SDS011;60396;47.550;18.828;2023-04-25T07:12:30;7.13;;;3.00;;
72406;SDS011;60396;47.550;18.828;2023-04-25T07:14:57;7.30;;;3.03;;
72406;SDS011;60396;47.550;18.828;2023-04-25T07:17:26;6.97;;;3.00;;
72406;SDS011;60396;47.550;18.828;2023-04-25T07:19:54;6.18;;;2.80;;
72406;SDS011;60396;47.550;18.828;2023-04-25T07:22:21;7.68;;;3.12;;
72406;SDS011;60396;47.550;18.828;2023-04-25T07:24:49;7.67;;;3.23;;
72406;SDS011;60396;47.550;18.828;2023-04-25T07:27:18;7.30;;;2.67;;
72406;SDS011;60396;47.550;18.828;2023-04-25T07:29:46;8.88;;;3.22;;
72406;SDS011;60396;47.550;18.828;2023-04-25T07:32:14;7.40;;;3.05;;
72406;SDS011;60396;47.550;18.828;2023-04-25T07:34:42;6.68;;;2.78;;
72406;SDS011;60396;47.550;18.828;2023-04-25T07:37:10;6.60;;;2.70;;
72406;SDS011;60396;47.550;18.828;2023-04-25T07:39:39;7.62;;;2.95;;
72406;SDS011;60396;47.550;18.828;2023-04-25T07:42:07;7.75;;;2.17;;
72406;SDS011;60396;47.550;18.828;2023-04-25T07:44:36;8.40;;;2.92;;
72406;SDS011;60396;47.550;18.828;2023-04-25T07:47:08;7.97;;;3.25;;
72406;SDS011;60396;47.550;18.828;2023-04-25T07:49:36;7.10;;;2.67;;
72406;SDS011;60396;47.550;18.828;2023-04-25T07:52:04;9.43;;;3.33;;
72406;SDS011;60396;47.550;18.828;2023-04-25T07:54:37;6.57;;;2.85;;
72406;SDS011;60396;47.550;18.828;2023-04-25T07:57:05;8.75;;;3.25;;
72406;SDS011;60396;47.550;18.828;2023-04-25T07:59:36;6.53;;;3.08;;
72406;SDS011;60396;47.550;18.828;2023-04-25T08:02:04;8.70;;;3.27;;
72406;SDS011;60396;47.550;18.828;2023-04-25T08:04:33;6.68;;;2.72;;
72406;SDS011;60396;47.550;18.828;2023-04-25T08:07:01;6.75;;;3.00;;
72406;SDS011;60396;47.550;18.828;2023-04-25T08:09:29;7.07;;;3.05;;
72406;SDS011;60396;47.550;18.828;2023-04-25T08:12:02;6.78;;;3.03;;
72406;SDS011;60396;47.550;18.828;2023-04-25T08:14:30;8.87;;;3.37;;
72406;SDS011;60396;47.550;18.828;2023-04-25T08:17:03;7.82;;;3.10;;
72406;SDS011;60396;47.550;18.828;2023-04-25T08:19:31;6.68;;;2.83;;
72406;SDS011;60396;47.550;18.828;2023-04-25T08:22:00;6.45;;;3.10;;
72406;SDS011;60396;47.550;18.828;2023-04-25T08:24:28;9.10;;;3.37;;
72406;SDS011;60396;47.550;18.828;2023-04-25T08:26:57;9.70;;;3.37;;
72406;SDS011;60396;47.550;18.828;2023-04-25T08:29:26;7.12;;;3.25;;
72406;SDS011;60396;47.550;18.828;2023-04-25T08:31:55;8.23;;;3.03;;
72406;SDS011;60396;47.550;18.828;2023-04-25T08:34:24;6.57;;;2.92;;
72406;SDS011;60396;47.550;18.828;2023-04-25T08:36:52;16.90;;;3.35;;
72406;SDS011;60396;47.550;18.828;2023-04-25T08:39:20;10.13;;;3.43;;
72406;SDS011;60396;47.550;18.828;2023-04-25T08:41:49;6.80;;;3.30;;
72406;SDS011;60396;47.550;18.828;2023-04-25T08:44:17;9.75;;;3.50;;
72406;SDS011;60396;47.550;18.828;2023-04-25T08:46:47;7.00;;;3.15;;
72406;SDS011;60396;47.550;18.828;2023-04-25T08:49:17;8.80;;;3.50;;
72406;SDS011;60396;47.550;18.828;2023-04-25T08:51:46;7.30;;;3.50;;
72406;SDS011;60396;47.550;18.828;2023-04-25T08:54:15;9.05;;;3.42;;
72406;SDS011;60396;47.550;18.828;2023-04-25T08:57:02;7.20;;;3.45;;
72406;SDS011;60396;47.550;18.828;2023-04-25T08:59:32;8.07;;;3.37;;
72406;SDS011;60396;47.550;18.828;2023-04-25T09:02:01;6.53;;;2.97;;
72406;SDS011;60396;47.550;18.828;2023-04-25T09:04:33;8.37;;;3.50;;
72406;SDS011;60396;47.550;18.828;2023-04-25T09:07:00;8.18;;;3.70;;
72406;SDS011;60396;47.550;18.828;2023-04-25T09:09:28;7.32;;;3.30;;
72406;SDS011;60396;47.550;18.828;2023-04-25T09:11:56;7.40;;;2.95;;
72406;SDS011;60396;47.550;18.828;2023-04-25T09:14:25;7.20;;;2.97;;
72406;SDS011;60396;47.550;18.828;2023-04-25T09:19:27;7.00;;;3.00;;
72406;SDS011;60396;47.550;18.828;2023-04-25T09:22:08;6.43;;;2.80;;
72406;SDS011;60396;47.550;18.828;2023-04-25T09:24:37;6.37;;;2.60;;
72406;SDS011;60396;47.550;18.828;2023-04-25T09:27:07;8.32;;;2.60;;
72406;SDS011;60396;47.550;18.828;2023-04-25T09:29:40;6.90;;;2.50;;
72406;SDS011;60396;47.550;18.828;2023-04-25T09:32:22;6.32;;;2.50;;
72406;SDS011;60396;47.550;18.828;2023-04-25T09:34:53;6.25;;;2.20;;
72406;SDS011;60396;47.550;18.828;2023-04-25T09:37:29;6.37;;;2.42;;
72406;SDS011;60396;47.550;18.828;2023-04-25T09:40:04;5.32;;;2.20;;
72406;SDS011;60396;47.550;18.828;2023-04-25T09:42:34;5.80;;;2.30;;
72406;SDS011;60396;47.550;18.828;2023-04-25T09:45:03;5.32;;;2.37;;
72406;SDS011;60396;47.550;18.828;2023-04-25T09:47:36;5.82;;;1.98;;
72406;SDS011;60396;47.550;18.828;2023-04-25T09:50:13;6.32;;;1.52;;
72406;SDS011;60396;47.550;18.828;2023-04-25T09:52:46;4.78;;;1.50;;
72406;SDS011;60396;47.550;18.828;2023-04-25T09:55:33;5.37;;;1.83;;
72406;SDS011;60396;47.550;18.828;2023-04-25T09:58:05;4.22;;;1.40;;
72406;SDS011;60396;47.550;18.828;2023-04-25T10:00:36;4.90;;;1.17;;
72406;SDS011;60396;47.550;18.828;2023-04-25T10:03:09;3.95;;;0.90;;
72406;SDS011;60396;47.550;18.828;2023-04-25T10:05:39;4.40;;;1.15;;
72406;SDS011;60396;47.550;18.828;2023-04-25T10:08:08;4.70;;;1.20;;
72406;SDS011;60396;47.550;18.828;2023-04-25T10:10:36;4.35;;;1.33;;
72406;SDS011;60396;47.550;18.828;2023-04-25T10:13:05;4.00;;;1.10;;
72406;SDS011;60396;47.550;18.828;2023-04-25T10:15:36;5.12;;;1.12;;
72406;SDS011;60396;47.550;18.828;2023-04-25T10:18:07;2.62;;;0.70;;
72406;SDS011;60396;47.550;18.828;2023-04-25T10:20:35;3.80;;;0.77;;
72406;SDS011;60396;47.550;18.828;2023-04-25T10:23:11;3.67;;;1.00;;
72406;SDS011;60396;47.550;18.828;2023-04-25T10:25:41;2.62;;;0.70;;
72406;SDS011;60396;47.550;18.828;2023-04-25T10:28:09;2.28;;;0.60;;
72406;SDS011;60396;47.550;18.828;2023-04-25T10:30:37;4.25;;;0.70;;
72406;SDS011;60396;47.550;18.828;2023-04-25T10:33:16;3.30;;;0.67;;
72406;SDS011;60396;47.550;18.828;2023-04-25T10:35:44;7.03;;;0.60;;
72406;SDS011;60396;47.550;18.828;2023-04-25T10:38:15;4.28;;;0.45;;
72406;SDS011;60396;47.550;18.828;2023-04-25T10:41:01;1.67;;;0.40;;
72406;SDS011;60396;47.550;18.828;2023-04-25T10:46:01;1.90;;;0.43;;
72406;SDS011;60396;47.550;18.828;2023-04-25T10:48:29;1.52;;;0.32;;
72406;SDS011;60396;47.550;18.828;2023-04-25T10:53:35;2.00;;;0.30;;
72406;SDS011;60396;47.550;18.828;2023-04-25T10:56:22;2.95;;;0.50;;
72406;SDS011;60396;47.550;18.828;2023-04-25T10:59:16;1.47;;;0.40;;
72406;SDS011;60396;47.550;18.828;2023-04-25T11:01:46;2.00;;;0.50;;
72406;SDS011;60396;47.550;18.828;2023-04-25T11:04:32;2.10;;;0.40;;
72406;SDS011;60396;47.550;18.828;2023-04-25T11:09:50;3.28;;;0.50;;
72406;SDS011;60396;47.550;18.828;2023-04-25T11:12:17;1.60;;;0.30;;
72406;SDS011;60396;47.550;18.828;2023-04-25T11:14:45;1.40;;;0.30;;
72406;SDS011;60396;47.550;18.828;2023-04-25T11:17:13;2.42;;;0.40;;
72406;SDS011;60396;47.550;18.828;2023-04-25T11:19:41;2.08;;;0.50;;
72406;SDS011;60396;47.550;18.828;2023-04-25T11:22:09;2.42;;;0.50;;
72406;SDS011;60396;47.550;18.828;2023-04-25T11:24:37;1.77;;;0.40;;
72406;SDS011;60396;47.550;18.828;2023-04-25T11:27:05;3.00;;;0.70;;
72406;SDS011;60396;47.550;18.828;2023-04-25T11:29:34;3.28;;;0.60;;
72406;SDS011;60396;47.550;18.828;2023-04-25T11:32:02;2.70;;;0.60;;
72406;SDS011;60396;47.550;18.828;2023-04-25T11:34:30;2.28;;;0.50;;
72406;SDS011;60396;47.550;18.828;2023-04-25T11:36:59;3.63;;;0.60;;
72406;SDS011;60396;47.550;18.828;2023-04-25T11:39:28;2.62;;;0.60;;
72406;SDS011;60396;47.550;18.828;2023-04-25T11:41:56;3.58;;;0.55;;
72406;SDS011;60396;47.550;18.828;2023-04-25T11:44:28;3.60;;;0.68;;
72406;SDS011;60396;47.550;18.828;2023-04-25T11:46:57;2.30;;;0.60;;
72406;SDS011;60396;47.550;18.828;2023-04-25T11:49:25;2.93;;;0.60;;
72406;SDS011;60396;47.550;18.828;2023-04-25T11:51:59;3.15;;;0.60;;
72406;SDS011;60396;47.550;18.828;2023-04-25T11:54:27;3.33;;;0.50;;
72406;SDS011;60396;47.550;18.828;2023-04-25T11:56:54;2.15;;;0.50;;
72406;SDS011;60396;47.550;18.828;2023-04-25T11:59:23;4.05;;;0.90;;
72406;SDS011;60396;47.550;18.828;2023-04-25T12:01:51;2.23;;;0.50;;
72406;SDS011;60396;47.550;18.828;2023-04-25T12:04:23;2.55;;;0.60;;
72406;SDS011;60396;47.550;18.828;2023-04-25T12:06:52;7.25;;;0.70;;
72406;SDS011;60396;47.550;18.828;2023-04-25T12:09:31;2.78;;;0.45;;
72406;SDS011;60396;47.550;18.828;2023-04-25T12:12:00;2.58;;;0.73;;
72406;SDS011;60396;47.550;18.828;2023-04-25T12:14:32;4.57;;;1.00;;
72406;SDS011;60396;47.550;18.828;2023-04-25T12:17:01;2.17;;;0.65;;
72406;SDS011;60396;47.550;18.828;2023-04-25T12:19:35;4.43;;;1.05;;
72406;SDS011;60396;47.550;18.828;2023-04-25T12:22:10;5.75;;;0.70;;
72406;SDS011;60396;47.550;18.828;2023-04-25T12:24:47;2.65;;;0.60;;
72406;SDS011;60396;47.550;18.828;2023-04-25T12:27:15;2.90;;;0.63;;
72406;SDS011;60396;47.550;18.828;2023-04-25T12:29:50;3.85;;;0.70;;
72406;SDS011;60396;47.550;18.828;2023-04-25T12:32:19;2.65;;;0.88;;
72406;SDS011;60396;47.550;18.828;2023-04-25T12:34:46;3.25;;;0.60;;
72406;SDS011;60396;47.550;18.828;2023-04-25T12:37:14;4.62;;;1.02;;
72406;SDS011;60396;47.550;18.828;2023-04-25T12:39:42;4.30;;;0.90;;
72406;SDS011;60396;47.550;18.828;2023-04-25T12:42:10;2.83;;;0.80;;
72406;SDS011;60396;47.550;18.828;2023-04-25T12:44:40;5.18;;;1.15;;
72406;SDS011;60396;47.550;18.828;2023-04-25T12:47:09;6.43;;;0.60;;
72406;SDS011;60396;47.550;18.828;2023-04-25T12:49:37;4.47;;;0.95;;
72406;SDS011;60396;47.550;18.828;2023-04-25T12:52:05;3.80;;;0.80;;
72406;SDS011;60396;47.550;18.828;2023-04-25T12:54:32;3.03;;;0.73;;
72406;SDS011;60396;47.550;18.828;2023-04-25T12:57:00;3.55;;;0.85;;
72406;SDS011;60396;47.550;18.828;2023-04-25T12:59:30;2.50;;;0.70;;
72406;SDS011;60396;47.550;18.828;2023-04-25T13:01:58;5.57;;;0.75;;
72406;SDS011;60396;47.550;18.828;2023-04-25T13:04:26;2.40;;;0.80;;
72406;SDS011;60396;47.550;18.828;2023-04-25T13:06:55;2.97;;;0.73;;
72406;SDS011;60396;47.550;18.828;2023-04-25T13:09:23;3.17;;;0.80;;
72406;SDS011;60396;47.550;18.828;2023-04-25T13:11:50;3.53;;;0.80;;
72406;SDS011;60396;47.550;18.828;2023-04-25T13:14:19;4.15;;;1.08;;
72406;SDS011;60396;47.550;18.828;2023-04-25T13:16:47;3.00;;;0.77;;
72406;SDS011;60396;47.550;18.828;2023-04-25T13:19:15;3.05;;;0.90;;
72406;SDS011;60396;47.550;18.828;2023-04-25T13:21:43;6.30;;;1.35;;
72406;SDS011;60396;47.550;18.828;2023-04-25T13:24:11;34.97;;;2.40;;
72406;SDS011;60396;47.550;18.828;2023-04-25T13:26:39;4.32;;;0.80;;
72406;SDS011;60396;47.550;18.828;2023-04-25T13:29:06;2.63;;;0.70;;
72406;SDS011;60396;47.550;18.828;2023-04-25T13:31:34;3.72;;;0.80;;
72406;SDS011;60396;47.550;18.828;2023-04-25T13:34:02;3.37;;;0.85;;
72406;SDS011;60396;47.550;18.828;2023-04-25T13:36:30;3.95;;;0.95;;
72406;SDS011;60396;47.550;18.828;2023-04-25T13:39:03;4.80;;;1.10;;
72406;SDS011;60396;47.550;18.828;2023-04-25T13:41:34;3.40;;;0.80;;
72406;SDS011;60396;47.550;18.828;2023-04-25T13:44:02;4.93;;;1.00;;
72406;SDS011;60396;47.550;18.828;2023-04-25T13:46:29;6.43;;;0.80;;
72406;SDS011;60396;47.550;18.828;2023-04-25T13:49:13;2.28;;;0.52;;
72406;SDS011;60396;47.550;18.828;2023-04-25T13:51:41;4.18;;;1.00;;
72406;SDS011;60396;47.550;18.828;2023-04-25T13:54:09;2.77;;;0.70;;
72406;SDS011;60396;47.550;18.828;2023-04-25T13:56:37;2.70;;;0.80;;
72406;SDS011;60396;47.550;18.828;2023-04-25T13:59:06;4.70;;;1.20;;
72406;SDS011;60396;47.550;18.828;2023-04-25T14:01:34;5.32;;;0.80;;
72406;SDS011;60396;47.550;18.828;2023-04-25T14:04:03;6.72;;;1.77;;
72406;SDS011;60396;47.550;18.828;2023-04-25T14:06:32;3.70;;;1.20;;
72406;SDS011;60396;47.550;18.828;2023-04-25T14:09:00;3.53;;;0.80;;
72406;SDS011;60396;47.550;18.828;2023-04-25T14:11:32;3.95;;;1.23;;
72406;SDS011;60396;47.550;18.828;2023-04-25T14:13:59;4.47;;;1.00;;
72406;SDS011;60396;47.550;18.828;2023-04-25T14:16:27;3.28;;;0.95;;
72406;SDS011;60396;47.550;18.828;2023-04-25T14:18:55;10.33;;;1.30;;
72406;SDS011;60396;47.550;18.828;2023-04-25T14:21:23;3.90;;;1.20;;
72406;SDS011;60396;47.550;18.828;2023-04-25T14:23:55;5.05;;;1.10;;
72406;SDS011;60396;47.550;18.828;2023-04-25T14:26:23;3.70;;;0.90;;
72406;SDS011;60396;47.550;18.828;2023-04-25T14:28:51;3.92;;;1.08;;
72406;SDS011;60396;47.550;18.828;2023-04-25T14:31:19;3.27;;;0.70;;
72406;SDS011;60396;47.550;18.828;2023-04-25T14:33:47;4.28;;;0.82;;
72406;SDS011;60396;47.550;18.828;2023-04-25T14:36:15;3.85;;;1.12;;
72406;SDS011;60396;47.550;18.828;2023-04-25T14:38:43;2.80;;;0.70;;
72406;SDS011;60396;47.550;18.828;2023-04-25T14:41:11;7.32;;;1.20;;
72406;SDS011;60396;47.550;18.828;2023-04-25T14:43:38;6.93;;;1.10;;
72406;SDS011;60396;47.550;18.828;2023-04-25T14:46:09;4.80;;;0.90;;
72406;SDS011;60396;47.550;18.828;2023-04-25T14:48:38;4.75;;;1.15;;
72406;SDS011;60396;47.550;18.828;2023-04-25T14:51:06;4.68;;;0.90;;
72406;SDS011;60396;47.550;18.828;2023-04-25T14:53:34;2.83;;;1.02;;
72406;SDS011;60396;47.550;18.828;2023-04-25T14:56:02;7.37;;;1.20;;